»·PEaware :: POST11 KGEG-KSEA

POST11 :: KGEG-KSEA

FLIGHT INFORMATION

Flight Status: Arrived
Operator: Unknown
More flights by this operator :: More flights under this callsign
Pilot: Ariana M. (21621)
Aircraft: BEECH AIRCRAFT T-6A TEXAN
(TEX2)
More flights by this aircraft type
Origin: KGEG Spokane Intl
United States
Destination: KSEA Seattle-Tacoma Intl
United States
More flights between these airports :: More routes between these airports
Route: GEG GLASR1
File this flight plan on PilotEdge
Remarks: Rqst Spokane Six departure to EPH
Altitude:
(Current/Filed)
16,000ft
Speed:
(Current/Filed)
270kts
Departed: 04-Feb-21 06:39 AM
Arrived: 04-Feb-21 07:19 AM
Distance/Time
Traveled:
194nm/0:40
Distance/Time
To Go:
Arrived

Flight Plot

Page will automatically refresh every two minutes.

Flight plan parsing failed; only flown route is shown


Map Options




Map Legend


Flown Route
Filed Route
Departure Airport
Arrival Airport
Navaid (VOR, NDB)
Fix

Horizontal Profiles

Position Reports

Time Latitude Longitude Heading Altitude Ground
Speed
04-Feb-21 06:18 47.620473 -117.528443 333 2359ft 0kts
04-Feb-21 06:19 47.620473 -117.528443 333 2359ft 0kts
04-Feb-21 06:20 47.620473 -117.528443 333 2359ft 0kts
04-Feb-21 06:21 47.620473 -117.528443 333 2359ft 0kts
04-Feb-21 06:22 47.620473 -117.528443 333 2359ft 0kts
04-Feb-21 06:23 47.620473 -117.528443 333 2359ft 0kts
04-Feb-21 06:24 47.620473 -117.528443 333 2359ft 0kts
04-Feb-21 06:25 47.620473 -117.528443 333 2359ft 0kts
04-Feb-21 06:26 47.620473 -117.528443 333 2359ft 0kts
04-Feb-21 06:27 47.620473 -117.528443 333 2359ft 0kts
04-Feb-21 06:28 47.620473 -117.528443 333 2359ft 0kts
04-Feb-21 06:29 47.620473 -117.528443 333 2359ft 0kts
04-Feb-21 06:30 47.620473 -117.528443 333 2359ft 0kts
04-Feb-21 06:31 47.620473 -117.528443 333 2359ft 0kts
04-Feb-21 06:32 47.620473 -117.528443 333 2359ft 0kts
04-Feb-21 06:33 47.620509 -117.528469 332 2359ft 2kts
04-Feb-21 06:34 47.623217 -117.526826 44 2354ft 12kts
04-Feb-21 06:35 47.626387 -117.522056 45 2344ft 16kts
04-Feb-21 06:36 47.629669 -117.517133 39 2326ft 16kts
04-Feb-21 06:37 47.630544 -117.517504 314 2323ft 7kts
04-Feb-21 06:38 47.618275 -117.537711 225 2883ft 153kts
04-Feb-21 06:39 47.591048 -117.595088 274 5777ft 190kts
04-Feb-21 06:40 47.593851 -117.670932 273 9171ft 193kts
04-Feb-21 06:41 47.600217 -117.751944 275 11993ft 225kts
04-Feb-21 06:42 47.605947 -117.838542 275 15769ft 201kts
04-Feb-21 06:43 47.613708 -117.940653 276 16068ft 282kts
04-Feb-21 06:44 47.621487 -118.059926 275 16003ft 296kts
04-Feb-21 06:45 47.631663 -118.181259 278 16048ft 294kts
04-Feb-21 06:46 47.643408 -118.301150 279 15999ft 289kts
04-Feb-21 06:47 47.655624 -118.419335 279 15931ft 291kts
04-Feb-21 06:48 47.667370 -118.537264 277 16018ft 289kts
04-Feb-21 06:49 47.675785 -118.652167 275 16134ft 279kts
04-Feb-21 06:50 47.684977 -118.769781 277 16060ft 287kts
04-Feb-21 06:51 47.699058 -118.908037 280 16094ft 290kts
04-Feb-21 06:52 47.721674 -119.145050 276 15984ft 290kts
04-Feb-21 06:53 47.739278 -119.382764 276 16132ft 289kts
04-Feb-21 06:54 47.750982 -119.621307 273 16142ft 289kts
04-Feb-21 06:55 47.762164 -119.861158 274 15908ft 292kts
04-Feb-21 06:57 47.778299 -120.101904 276 15679ft 291kts
04-Feb-21 06:58 47.799377 -120.341007 278 15619ft 290kts
04-Feb-21 06:59 47.814537 -120.580481 275 15684ft 287kts
04-Feb-21 07:00 47.830329 -120.820596 273 15723ft 287kts
04-Feb-21 07:01 47.841410 -121.062426 276 15536ft 287kts
04-Feb-21 07:02 47.857483 -121.301763 275 13881ft 280kts
04-Feb-21 07:03 47.872343 -121.525114 278 9743ft 274kts
04-Feb-21 07:04 47.880082 -121.633561 276 9753ft 248kts
04-Feb-21 07:05 47.868005 -121.733612 218 9649ft 262kts
04-Feb-21 07:06 47.811107 -121.806596 222 8297ft 262kts
04-Feb-21 07:07 47.766859 -121.886237 263 5985ft 249kts
04-Feb-21 07:08 47.761115 -121.985772 265 4610ft 226kts
04-Feb-21 07:09 47.757931 -122.077414 268 4676ft 216kts
04-Feb-21 07:10 47.755232 -122.167973 270 4022ft 226kts
04-Feb-21 07:11 47.750034 -122.256980 241 3666ft 213kts
04-Feb-21 07:11 47.709285 -122.295179 210 3857ft 211kts
04-Feb-21 07:13 47.644772 -122.305791 181 3608ft 166kts
04-Feb-21 07:14 47.601971 -122.307330 181 3176ft 120kts
04-Feb-21 07:14 47.574854 -122.306713 179 2675ft 115kts
04-Feb-21 07:16 47.537093 -122.307102 180 1906ft 115kts
04-Feb-21 07:16 47.510534 -122.307299 180 1400ft 113kts
04-Feb-21 07:17 47.478341 -122.307633 179 762ft 114kts
04-Feb-21 07:19 47.450168 -122.307242 95 406ft 23kts
04-Feb-21 07:19 47.450149 -122.306504 89 406ft 0kts

Navigation Log

Ident Type
Flight plan parsing failed, navigation log unavailable